»·PEaware :: N524ML KVNY-L70

N524ML :: KVNY-L70

FLIGHT INFORMATION

Flight Status: Arrived
Operator: Privately registered:
United States
More flights under this callsign
Pilot: Max L. (14194)
Aircraft: PIPER PA-28 CHEROKEE ARCHER
(P28A)
More flights by this aircraft type
Origin: KVNY Van Nuys
United States
Destination: L70 Agua Dulce
United States
More flights between these airports :: More routes between these airports
Route: +VNY PMD
File this flight plan on PilotEdge
Remarks:
Altitude:
(Current/Filed)
3,500ft
Speed:
(Current/Filed)
120kts
Departed: 20-Aug-17 07:03 PM
Arrived: 20-Aug-17 07:19 PM
Distance/Time
Traveled:
20nm/0:16
Distance/Time
To Go:
Arrived

Flight Plot

Page will automatically refresh every two minutes.

Flight plan parsing failed; only flown route is shown


Map Options




Map Legend


Flown Route
Filed Route
Departure Airport
Arrival Airport
Navaid (VOR, NDB)
Fix

Horizontal Profiles

Position Reports

Time Latitude Longitude Heading Altitude Ground
Speed
20-Aug-17 18:30 34.199206 -118.490716 180 755ft 0kts
20-Aug-17 18:31 34.199206 -118.490716 180 755ft 0kts
20-Aug-17 18:32 34.199206 -118.490716 180 755ft 0kts
20-Aug-17 18:33 34.199206 -118.490716 180 755ft 0kts
20-Aug-17 18:34 34.199206 -118.490716 180 755ft 0kts
20-Aug-17 18:35 34.199206 -118.490716 180 755ft 0kts
20-Aug-17 18:38 34.199206 -118.490716 180 755ft 0kts
20-Aug-17 18:39 34.199206 -118.490716 180 755ft 0kts
20-Aug-17 18:40 34.199206 -118.490716 180 755ft 0kts
20-Aug-17 18:41 34.199206 -118.490716 180 755ft 0kts
20-Aug-17 18:42 34.199206 -118.490716 180 755ft 0kts
20-Aug-17 18:43 34.199206 -118.490716 180 755ft 0kts
20-Aug-17 18:44 34.199206 -118.490716 180 755ft 0kts
20-Aug-17 18:45 34.199206 -118.490716 180 755ft 0kts
20-Aug-17 18:46 34.199206 -118.490716 180 755ft 0kts
20-Aug-17 18:47 34.199206 -118.490716 180 755ft 0kts
20-Aug-17 18:48 34.199206 -118.490716 180 755ft 0kts
20-Aug-17 18:49 34.199206 -118.490716 180 755ft 0kts
20-Aug-17 18:50 34.199206 -118.490716 180 755ft 0kts
20-Aug-17 18:51 34.199206 -118.490716 180 755ft 0kts
20-Aug-17 18:52 34.199206 -118.490716 180 755ft 0kts
20-Aug-17 18:53 34.199206 -118.490716 180 755ft 0kts
20-Aug-17 18:54 34.199206 -118.490716 180 755ft 0kts
20-Aug-17 18:55 34.199206 -118.490716 180 755ft 0kts
20-Aug-17 18:56 34.199206 -118.490716 180 755ft 0kts
20-Aug-17 18:57 34.199206 -118.490716 180 755ft 0kts
20-Aug-17 18:58 34.199206 -118.490716 180 755ft 0kts
20-Aug-17 18:59 34.199206 -118.490716 180 755ft 0kts
20-Aug-17 19:00 34.200923 -118.490356 355 758ft 24kts
20-Aug-17 19:01 34.207594 -118.491348 355 771ft 25kts
20-Aug-17 19:02 34.215496 -118.492158 354 791ft 26kts
20-Aug-17 19:03 34.218743 -118.491995 75 794ft 0kts
20-Aug-17 19:04 34.218753 -118.491922 84 794ft 0kts
20-Aug-17 19:05 34.218753 -118.491922 84 794ft 0kts
20-Aug-17 19:06 34.218753 -118.491922 84 794ft 0kts
20-Aug-17 19:07 34.212431 -118.490560 175 868ft 89kts
20-Aug-17 19:08 34.184793 -118.489768 202 1561ft 109kts
20-Aug-17 19:09 34.193206 -118.513187 4 1984ft 117kts
20-Aug-17 19:10 34.225701 -118.506393 13 2442ft 131kts
20-Aug-17 19:11 34.258961 -118.496553 8 2803ft 112kts
20-Aug-17 19:12 34.288470 -118.495363 3 2878ft 95kts
20-Aug-17 19:13 34.322232 -118.493363 4 2880ft 115kts
20-Aug-17 19:14 34.351975 -118.499950 345 3540ft 129kts
20-Aug-17 19:15 34.386707 -118.513218 358 3467ft 133kts
20-Aug-17 19:16 34.413371 -118.490314 46 3419ft 103kts
20-Aug-17 19:17 34.426673 -118.458466 52 3290ft 102kts
20-Aug-17 19:18 34.446413 -118.435543 59 2795ft 97kts
20-Aug-17 19:19 34.455436 -118.407284 69 2699ft 90kts
20-Aug-17 19:20 34.464214 -118.379356 66 2803ft 94kts
20-Aug-17 19:21 34.478168 -118.353700 54 3014ft 88kts
20-Aug-17 19:22 34.493539 -118.329196 53 2807ft 93kts
20-Aug-17 19:23 34.502628 -118.313853 134 2611ft 4kts
20-Aug-17 19:24 34.503420 -118.312405 53 2620ft 26kts
20-Aug-17 19:25 34.504902 -118.309713 142 2637ft 0kts
20-Aug-17 19:26 34.504902 -118.309713 142 2637ft 0kts
20-Aug-17 19:27 34.497148 -118.323290 54 2704ft 83kts
20-Aug-17 19:28 34.502609 -118.313823 118 2612ft 3kts

Navigation Log

Ident Type
Flight plan parsing failed, navigation log unavailable